sensor_id;sensor_type;location;lat;lon;timestamp;pressure;altitude;pressure_sealevel;temperature;humidity
60345;BME280;46188;52.324;8.032;2023-01-24T00:00:01;102775.56;;;2.93;100.00
60345;BME280;46188;52.324;8.032;2023-01-24T00:02:26;102770.22;;;2.92;100.00
60345;BME280;46188;52.324;8.032;2023-01-24T00:04:51;102767.63;;;2.92;100.00
60345;BME280;46188;52.324;8.032;2023-01-24T00:07:17;102773.72;;;2.92;100.00
60345;BME280;46188;52.324;8.032;2023-01-24T00:09:42;102776.22;;;2.91;100.00
60345;BME280;46188;52.324;8.032;2023-01-24T00:12:08;102780.78;;;2.93;100.00
60345;BME280;46188;52.324;8.032;2023-01-24T00:14:33;102776.91;;;2.88;100.00
60345;BME280;46188;52.324;8.032;2023-01-24T00:16:58;102772.72;;;2.90;100.00
60345;BME280;46188;52.324;8.032;2023-01-24T00:19:24;102768.03;;;2.86;100.00
60345;BME280;46188;52.324;8.032;2023-01-24T00:21:50;102762.81;;;2.86;100.00
60345;BME280;46188;52.324;8.032;2023-01-24T00:24:15;102759.06;;;2.83;100.00
60345;BME280;46188;52.324;8.032;2023-01-24T00:26:40;102760.00;;;2.83;100.00
60345;BME280;46188;52.324;8.032;2023-01-24T00:29:06;102762.72;;;2.85;100.00
60345;BME280;46188;52.324;8.032;2023-01-24T00:31:31;102771.44;;;2.85;100.00
60345;BME280;46188;52.324;8.032;2023-01-24T00:33:57;102773.47;;;2.89;100.00
60345;BME280;46188;52.324;8.032;2023-01-24T00:36:22;102772.72;;;2.90;100.00
60345;BME280;46188;52.324;8.032;2023-01-24T00:38:48;102764.91;;;2.90;100.00
60345;BME280;46188;52.324;8.032;2023-01-24T00:41:13;102758.91;;;2.91;100.00
60345;BME280;46188;52.324;8.032;2023-01-24T00:43:38;102759.69;;;2.90;100.00
60345;BME280;46188;52.324;8.032;2023-01-24T00:46:05;102767.50;;;2.90;100.00
60345;BME280;46188;52.324;8.032;2023-01-24T00:48:31;102770.63;;;2.86;100.00
60345;BME280;46188;52.324;8.032;2023-01-24T00:50:57;102766.75;;;2.81;100.00
60345;BME280;46188;52.324;8.032;2023-01-24T00:53:22;102762.59;;;2.83;100.00
60345;BME280;46188;52.324;8.032;2023-01-24T00:55:48;102763.94;;;2.78;100.00
60345;BME280;46188;52.324;8.032;2023-01-24T00:58:16;102748.31;;;2.78;100.00
60345;BME280;46188;52.324;8.032;2023-01-24T01:00:41;102741.63;;;2.82;100.00
60345;BME280;46188;52.324;8.032;2023-01-24T01:03:11;102739.94;;;2.82;100.00
60345;BME280;46188;52.324;8.032;2023-01-24T01:05:36;102735.50;;;2.81;100.00
60345;BME280;46188;52.324;8.032;2023-01-24T01:08:02;102742.53;;;2.82;100.00
60345;BME280;46188;52.324;8.032;2023-01-24T01:10:27;102741.28;;;2.77;100.00
60345;BME280;46188;52.324;8.032;2023-01-24T01:12:52;102749.84;;;2.76;100.00
60345;BME280;46188;52.324;8.032;2023-01-24T01:15:18;102745.47;;;2.75;100.00
60345;BME280;46188;52.324;8.032;2023-01-24T01:17:43;102749.59;;;2.73;100.00
60345;BME280;46188;52.324;8.032;2023-01-24T01:20:09;102748.59;;;2.71;100.00
60345;BME280;46188;52.324;8.032;2023-01-24T01:22:35;102745.22;;;2.72;100.00
60345;BME280;46188;52.324;8.032;2023-01-24T01:25:00;102747.00;;;2.73;100.00
60345;BME280;46188;52.324;8.032;2023-01-24T01:27:26;102741.78;;;2.73;100.00
60345;BME280;46188;52.324;8.032;2023-01-24T01:29:51;102742.97;;;2.76;100.00
60345;BME280;46188;52.324;8.032;2023-01-24T01:32:16;102748.41;;;2.80;100.00
60345;BME280;46188;52.324;8.032;2023-01-24T01:34:42;102745.78;;;2.80;100.00
60345;BME280;46188;52.324;8.032;2023-01-24T01:37:07;102743.88;;;2.77;100.00
60345;BME280;46188;52.324;8.032;2023-01-24T01:39:33;102741.16;;;2.75;100.00
60345;BME280;46188;52.324;8.032;2023-01-24T01:41:58;102741.66;;;2.71;100.00
60345;BME280;46188;52.324;8.032;2023-01-24T01:44:29;102734.91;;;2.73;100.00
60345;BME280;46188;52.324;8.032;2023-01-24T01:49:58;102729.09;;;2.66;100.00
60345;BME280;46188;52.324;8.032;2023-01-24T01:52:27;102725.84;;;2.68;100.00
60345;BME280;46188;52.324;8.032;2023-01-24T01:54:57;102719.81;;;2.69;100.00
60345;BME280;46188;52.324;8.032;2023-01-24T01:57:27;102728.56;;;2.70;100.00
60345;BME280;46188;52.324;8.032;2023-01-24T02:00:18;102725.16;;;2.71;100.00
60345;BME280;46188;52.324;8.032;2023-01-24T02:02:52;102726.34;;;2.64;100.00
60345;BME280;46188;52.324;8.032;2023-01-24T02:05:22;102725.84;;;2.58;100.00
60345;BME280;46188;52.324;8.032;2023-01-24T02:08:01;102719.09;;;2.60;100.00
60345;BME280;46188;52.324;8.032;2023-01-24T02:10:29;102727.94;;;2.62;100.00
60345;BME280;46188;52.324;8.032;2023-01-24T02:13:14;102731.56;;;2.64;100.00
60345;BME280;46188;52.324;8.032;2023-01-24T02:15:41;102721.28;;;2.66;100.00
60345;BME280;46188;52.324;8.032;2023-01-24T02:18:27;102730.66;;;2.64;100.00
60345;BME280;46188;52.324;8.032;2023-01-24T02:20:52;102732.59;;;2.66;100.00
60345;BME280;46188;52.324;8.032;2023-01-24T02:26:16;102729.97;;;2.66;100.00
60345;BME280;46188;52.324;8.032;2023-01-24T02:28:45;102727.16;;;2.63;100.00
60345;BME280;46188;52.324;8.032;2023-01-24T02:31:12;102732.38;;;2.63;100.00
60345;BME280;46188;52.324;8.032;2023-01-24T02:33:37;102728.31;;;2.67;100.00
60345;BME280;46188;52.324;8.032;2023-01-24T02:36:28;102730.09;;;2.68;100.00
60345;BME280;46188;52.324;8.032;2023-01-24T02:39:09;102730.09;;;2.68;100.00
60345;BME280;46188;52.324;8.032;2023-01-24T02:41:50;102725.72;;;2.67;100.00
60345;BME280;46188;52.324;8.032;2023-01-24T02:44:23;102727.03;;;2.62;100.00
60345;BME280;46188;52.324;8.032;2023-01-24T02:46:51;102727.19;;;2.53;100.00
60345;BME280;46188;52.324;8.032;2023-01-24T02:49:16;102722.66;;;2.50;100.00
60345;BME280;46188;52.324;8.032;2023-01-24T02:51:42;102732.41;;;2.53;100.00
60345;BME280;46188;52.324;8.032;2023-01-24T02:54:26;102731.50;;;2.52;100.00
60345;BME280;46188;52.324;8.032;2023-01-24T02:56:51;102723.81;;;2.54;100.00
60345;BME280;46188;52.324;8.032;2023-01-24T02:59:35;102720.97;;;2.51;100.00
60345;BME280;46188;52.324;8.032;2023-01-24T03:02:00;102726.28;;;2.52;100.00
60345;BME280;46188;52.324;8.032;2023-01-24T03:04:26;102726.03;;;2.49;100.00
60345;BME280;46188;52.324;8.032;2023-01-24T03:06:51;102716.53;;;2.50;100.00
60345;BME280;46188;52.324;8.032;2023-01-24T03:09:17;102720.06;;;2.50;100.00
60345;BME280;46188;52.324;8.032;2023-01-24T03:11:59;102714.84;;;2.50;100.00
60345;BME280;46188;52.324;8.032;2023-01-24T03:14:45;102710.44;;;2.49;100.00
60345;BME280;46188;52.324;8.032;2023-01-24T03:17:29;102710.78;;;2.54;100.00
60345;BME280;46188;52.324;8.032;2023-01-24T03:20:13;102709.91;;;2.53;100.00
60345;BME280;46188;52.324;8.032;2023-01-24T03:22:57;102705.72;;;2.55;100.00
60345;BME280;46188;52.324;8.032;2023-01-24T03:25:41;102706.72;;;2.57;100.00
60345;BME280;46188;52.324;8.032;2023-01-24T03:28:25;102715.31;;;2.56;100.00
60345;BME280;46188;52.324;8.032;2023-01-24T03:31:10;102717.16;;;2.57;100.00
60345;BME280;46188;52.324;8.032;2023-01-24T03:33:54;102722.09;;;2.54;100.00
60345;BME280;46188;52.324;8.032;2023-01-24T03:36:38;102721.72;;;2.50;100.00
60345;BME280;46188;52.324;8.032;2023-01-24T03:39:03;102720.44;;;2.55;100.00
60345;BME280;46188;52.324;8.032;2023-01-24T03:41:47;102724.59;;;2.53;100.00
60345;BME280;46188;52.324;8.032;2023-01-24T03:44:12;102722.91;;;2.53;100.00
60345;BME280;46188;52.324;8.032;2023-01-24T03:46:38;102721.97;;;2.53;100.00
60345;BME280;46188;52.324;8.032;2023-01-24T03:49:06;102726.03;;;2.49;100.00
60345;BME280;46188;52.324;8.032;2023-01-24T03:51:32;102725.16;;;2.49;100.00
60345;BME280;46188;52.324;8.032;2023-01-24T03:54:16;102727.38;;;2.44;100.00
60345;BME280;46188;52.324;8.032;2023-01-24T03:56:41;102723.88;;;2.44;100.00
60345;BME280;46188;52.324;8.032;2023-01-24T03:59:07;102728.28;;;2.45;100.00
60345;BME280;46188;52.324;8.032;2023-01-24T04:01:32;102724.00;;;2.45;100.00
60345;BME280;46188;52.324;8.032;2023-01-24T04:03:58;102728.03;;;2.42;100.00
60345;BME280;46188;52.324;8.032;2023-01-24T04:06:23;102731.00;;;2.46;100.00
60345;BME280;46188;52.324;8.032;2023-01-24T04:08:49;102737.13;;;2.47;100.00
60345;BME280;46188;52.324;8.032;2023-01-24T04:11:15;102730.47;;;2.50;100.00
60345;BME280;46188;52.324;8.032;2023-01-24T04:13:40;102728.78;;;2.51;100.00
60345;BME280;46188;52.324;8.032;2023-01-24T04:16:07;102733.34;;;2.53;100.00
60345;BME280;46188;52.324;8.032;2023-01-24T04:18:32;102730.72;;;2.53;100.00
60345;BME280;46188;52.324;8.032;2023-01-24T04:21:04;102730.84;;;2.55;100.00
60345;BME280;46188;52.324;8.032;2023-01-24T04:23:31;102724.13;;;2.47;100.00
60345;BME280;46188;52.324;8.032;2023-01-24T04:25:57;102722.28;;;2.46;100.00
60345;BME280;46188;52.324;8.032;2023-01-24T04:28:25;102722.28;;;2.46;100.00
60345;BME280;46188;52.324;8.032;2023-01-24T04:31:01;102719.13;;;2.50;100.00
60345;BME280;46188;52.324;8.032;2023-01-24T04:33:27;102722.16;;;2.44;100.00
60345;BME280;46188;52.324;8.032;2023-01-24T04:35:59;102718.53;;;2.42;100.00
60345;BME280;46188;52.324;8.032;2023-01-24T04:38:24;102715.94;;;2.42;100.00
60345;BME280;46188;52.324;8.032;2023-01-24T04:40:57;102720.13;;;2.40;100.00
60345;BME280;46188;52.324;8.032;2023-01-24T04:43:23;102716.34;;;2.36;100.00
60345;BME280;46188;52.324;8.032;2023-01-24T04:45:49;102717.59;;;2.42;100.00
60345;BME280;46188;52.324;8.032;2023-01-24T04:48:14;102725.03;;;2.47;100.00
60345;BME280;46188;52.324;8.032;2023-01-24T04:50:39;102726.94;;;2.50;100.00
60345;BME280;46188;52.324;8.032;2023-01-24T04:53:05;102718.47;;;2.52;100.00
60345;BME280;46188;52.324;8.032;2023-01-24T04:55:30;102720.97;;;2.51;100.00
60345;BME280;46188;52.324;8.032;2023-01-24T04:57:56;102722.09;;;2.54;100.00
60345;BME280;46188;52.324;8.032;2023-01-24T05:00:21;102724.59;;;2.53;100.00
60345;BME280;46188;52.324;8.032;2023-01-24T05:02:46;102725.41;;;2.52;100.00
60345;BME280;46188;52.324;8.032;2023-01-24T05:05:12;102732.41;;;2.53;100.00
60345;BME280;46188;52.324;8.032;2023-01-24T05:07:37;102730.03;;;2.56;100.00
60345;BME280;46188;52.324;8.032;2023-01-24T05:10:03;102730.72;;;2.53;100.00
60345;BME280;46188;52.324;8.032;2023-01-24T05:12:29;102727.88;;;2.50;100.00
60345;BME280;46188;52.324;8.032;2023-01-24T05:14:54;102731.25;;;2.49;100.00
60345;BME280;46188;52.324;8.032;2023-01-24T05:17:19;102734.63;;;2.48;100.00
60345;BME280;46188;52.324;8.032;2023-01-24T05:19:45;102728.41;;;2.46;100.00
60345;BME280;46188;52.324;8.032;2023-01-24T05:22:10;102732.59;;;2.44;100.00
60345;BME280;46188;52.324;8.032;2023-01-24T05:24:36;102732.59;;;2.44;100.00
60345;BME280;46188;52.324;8.032;2023-01-24T05:27:01;102735.06;;;2.43;100.00
60345;BME280;46188;52.324;8.032;2023-01-24T05:29:27;102735.84;;;2.42;100.00
60345;BME280;46188;52.324;8.032;2023-01-24T05:31:52;102741.16;;;2.43;100.00
60345;BME280;46188;52.324;8.032;2023-01-24T05:34:17;102741.16;;;2.43;100.00
60345;BME280;46188;52.324;8.032;2023-01-24T05:36:43;102738.56;;;2.43;100.00
60345;BME280;46188;52.324;8.032;2023-01-24T05:39:08;102738.69;;;2.45;100.00
60345;BME280;46188;52.324;8.032;2023-01-24T05:41:34;102741.97;;;2.42;100.00
60345;BME280;46188;52.324;8.032;2023-01-24T05:43:59;102753.16;;;2.41;100.00
60345;BME280;46188;52.324;8.032;2023-01-24T05:46:25;102753.16;;;2.41;100.00
60345;BME280;46188;52.324;8.032;2023-01-24T05:48:50;102752.63;;;2.45;100.00
60345;BME280;46188;52.324;8.032;2023-01-24T05:51:18;102754.69;;;2.49;100.00
60345;BME280;46188;52.324;8.032;2023-01-24T05:53:44;102752.09;;;2.49;100.00
60345;BME280;46188;52.324;8.032;2023-01-24T05:56:13;102754.69;;;2.49;100.00
60345;BME280;46188;52.324;8.032;2023-01-24T05:58:40;102761.84;;;2.52;100.00
60345;BME280;46188;52.324;8.032;2023-01-24T06:01:17;102760.25;;;2.54;100.00
60345;BME280;46188;52.324;8.032;2023-01-24T06:03:45;102756.63;;;2.52;100.00
60345;BME280;46188;52.324;8.032;2023-01-24T06:06:14;102753.91;;;2.50;100.00
60345;BME280;46188;52.324;8.032;2023-01-24T06:08:40;102759.00;;;2.49;100.00
60345;BME280;46188;52.324;8.032;2023-01-24T06:11:10;102758.88;;;2.47;100.00
60345;BME280;46188;52.324;8.032;2023-01-24T06:13:37;102758.38;;;2.41;100.00
60345;BME280;46188;52.324;8.032;2023-01-24T06:16:10;102756.81;;;2.33;100.00
60345;BME280;46188;52.324;8.032;2023-01-24T06:18:35;102758.53;;;2.32;100.00
60345;BME280;46188;52.324;8.032;2023-01-24T06:21:16;102761.25;;;2.34;100.00
60345;BME280;46188;52.324;8.032;2023-01-24T06:23:44;102760.47;;;2.35;100.00
60345;BME280;46188;52.324;8.032;2023-01-24T06:26:10;102767.25;;;2.33;100.00
60345;BME280;46188;52.324;8.032;2023-01-24T06:28:37;102762.97;;;2.23;100.00
60345;BME280;46188;52.324;8.032;2023-01-24T06:31:38;102759.06;;;2.28;100.00
60345;BME280;46188;52.324;8.032;2023-01-24T06:39:20;102769.59;;;2.30;100.00
60345;BME280;46188;52.324;8.032;2023-01-24T06:41:47;102769.34;;;2.27;100.00
60345;BME280;46188;52.324;8.032;2023-01-24T06:44:13;102774.53;;;2.27;100.00
60345;BME280;46188;52.324;8.032;2023-01-24T06:46:38;102769.34;;;2.27;100.00
60345;BME280;46188;52.324;8.032;2023-01-24T06:49:04;102776.38;;;2.28;100.00
60345;BME280;46188;52.324;8.032;2023-01-24T06:51:29;102775.22;;;2.24;100.00
60345;BME280;46188;52.324;8.032;2023-01-24T06:53:55;102771.03;;;2.26;100.00
60345;BME280;46188;52.324;8.032;2023-01-24T06:56:20;102780.94;;;2.30;100.00
60345;BME280;46188;52.324;8.032;2023-01-24T06:58:46;102777.66;;;2.33;100.00
60345;BME280;46188;52.324;8.032;2023-01-24T07:01:12;102779.22;;;2.31;100.00
60345;BME280;46188;52.324;8.032;2023-01-24T07:03:38;102775.84;;;2.32;100.00
60345;BME280;46188;52.324;8.032;2023-01-24T07:06:03;102776.63;;;2.31;100.00
60345;BME280;46188;52.324;8.032;2023-01-24T07:08:29;102778.47;;;2.21;100.00
60345;BME280;46188;52.324;8.032;2023-01-24T07:10:57;102782.63;;;2.19;100.00
60345;BME280;46188;52.324;8.032;2023-01-24T07:13:23;102792.78;;;2.16;100.00
60345;BME280;46188;52.324;8.032;2023-01-24T07:15:48;102786.56;;;2.14;100.00
60345;BME280;46188;52.324;8.032;2023-01-24T07:18:18;102793.94;;;2.20;100.00
60345;BME280;46188;52.324;8.032;2023-01-24T07:20:44;102806.84;;;2.18;100.00
60345;BME280;46188;52.324;8.032;2023-01-24T07:23:22;102805.41;;;2.22;100.00
60345;BME280;46188;52.324;8.032;2023-01-24T07:25:49;102795.91;;;2.22;100.00
60345;BME280;46188;52.324;8.032;2023-01-24T07:28:15;102809.06;;;2.24;100.00
60345;BME280;46188;52.324;8.032;2023-01-24T07:30:41;102815.97;;;2.24;100.00
60345;BME280;46188;52.324;8.032;2023-01-24T07:33:06;102812.44;;;2.23;100.00
60345;BME280;46188;52.324;8.032;2023-01-24T07:35:31;102817.75;;;2.25;100.00
60345;BME280;46188;52.324;8.032;2023-01-24T07:37:57;102810.97;;;2.27;100.00
60345;BME280;46188;52.324;8.032;2023-01-24T07:40:22;102820.63;;;2.28;100.00
60345;BME280;46188;52.324;8.032;2023-01-24T07:42:47;102822.06;;;2.24;100.00
60345;BME280;46188;52.324;8.032;2023-01-24T07:45:13;102816.84;;;2.24;100.00
60345;BME280;46188;52.324;8.032;2023-01-24T07:47:38;102820.34;;;2.25;100.00
60345;BME280;46188;52.324;8.032;2023-01-24T07:50:04;102821.50;;;2.28;100.00
60345;BME280;46188;52.324;8.032;2023-01-24T07:52:29;102821.16;;;2.24;100.00
60345;BME280;46188;52.324;8.032;2023-01-24T07:54:55;102826.38;;;2.24;100.00
60345;BME280;46188;52.324;8.032;2023-01-24T07:57:20;102825.84;;;2.17;100.00
60345;BME280;46188;52.324;8.032;2023-01-24T07:59:46;102823.25;;;2.17;100.00
60345;BME280;46188;52.324;8.032;2023-01-24T08:02:11;102823.38;;;2.19;100.00
60345;BME280;46188;52.324;8.032;2023-01-24T08:04:37;102823.38;;;2.19;100.00
60345;BME280;46188;52.324;8.032;2023-01-24T08:07:03;102828.44;;;2.17;100.00
60345;BME280;46188;52.324;8.032;2023-01-24T08:09:46;102829.09;;;2.15;100.00
60345;BME280;46188;52.324;8.032;2023-01-24T08:12:12;102833.53;;;2.16;100.00
60345;BME280;46188;52.324;8.032;2023-01-24T08:14:38;102832.09;;;2.19;100.00
60345;BME280;46188;52.324;8.032;2023-01-24T08:17:03;102828.84;;;2.22;100.00
60345;BME280;46188;52.324;8.032;2023-01-24T08:19:28;102840.16;;;2.22;100.00
60345;BME280;46188;52.324;8.032;2023-01-24T08:21:54;102841.06;;;2.23;100.00
60345;BME280;46188;52.324;8.032;2023-01-24T08:24:19;102822.69;;;2.21;100.00
60345;BME280;46188;52.324;8.032;2023-01-24T08:26:45;102833.13;;;2.21;100.00
60345;BME280;46188;52.324;8.032;2023-01-24T08:29:12;102837.03;;;2.16;100.00
60345;BME280;46188;52.324;8.032;2023-01-24T08:31:37;102837.84;;;2.15;100.00
60345;BME280;46188;52.324;8.032;2023-01-24T08:34:03;102833.66;;;2.17;100.00
60345;BME280;46188;52.324;8.032;2023-01-24T08:36:28;102839.75;;;2.18;100.00
60345;BME280;46188;52.324;8.032;2023-01-24T08:38:54;102846.00;;;2.20;100.00
60345;BME280;46188;52.324;8.032;2023-01-24T08:41:19;102839.75;;;2.18;100.00
60345;BME280;46188;52.324;8.032;2023-01-24T08:43:44;102843.25;;;2.18;100.00
60345;BME280;46188;52.324;8.032;2023-01-24T08:46:10;102841.72;;;2.20;100.00
60345;BME280;46188;52.324;8.032;2023-01-24T08:48:35;102842.22;;;2.16;100.00
60345;BME280;46188;52.324;8.032;2023-01-24T08:51:05;102850.03;;;2.16;100.00
60345;BME280;46188;52.324;8.032;2023-01-24T08:53:32;102843.81;;;2.14;100.00
60345;BME280;46188;52.324;8.032;2023-01-24T08:55:57;102854.09;;;2.13;100.00
60345;BME280;46188;52.324;8.032;2023-01-24T08:58:23;102857.06;;;2.17;100.00
60345;BME280;46188;52.324;8.032;2023-01-24T09:00:48;102853.03;;;2.21;100.00
60345;BME280;46188;52.324;8.032;2023-01-24T09:03:16;102858.09;;;2.19;100.00
60345;BME280;46188;52.324;8.032;2023-01-24T09:05:42;102858.25;;;2.21;100.00
60345;BME280;46188;52.324;8.032;2023-01-24T09:08:07;102861.88;;;2.23;100.00
60345;BME280;46188;52.324;8.032;2023-01-24T09:10:33;102863.16;;;2.28;100.00
60345;BME280;46188;52.324;8.032;2023-01-24T09:13:00;102865.88;;;2.30;100.00
60345;BME280;46188;52.324;8.032;2023-01-24T09:15:25;102868.13;;;2.25;100.00
60345;BME280;46188;52.324;8.032;2023-01-24T09:17:51;102869.69;;;2.23;100.00
60345;BME280;46188;52.324;8.032;2023-01-24T09:20:16;102864.47;;;2.23;100.00
60345;BME280;46188;52.324;8.032;2023-01-24T09:22:42;102875.81;;;2.24;100.00
60345;BME280;46188;52.324;8.032;2023-01-24T09:25:08;102873.97;;;2.22;100.00
60345;BME280;46188;52.324;8.032;2023-01-24T09:27:34;102877.09;;;2.29;100.00
60345;BME280;46188;52.324;8.032;2023-01-24T09:30:00;102871.34;;;2.33;100.00
60345;BME280;46188;52.324;8.032;2023-01-24T09:32:25;102873.81;;;2.31;100.00
60345;BME280;46188;52.324;8.032;2023-01-24T09:34:50;102877.09;;;2.29;100.00
60345;BME280;46188;52.324;8.032;2023-01-24T09:37:20;102879.56;;;2.27;100.00
60345;BME280;46188;52.324;8.032;2023-01-24T09:39:45;102888.16;;;2.26;100.00
60345;BME280;46188;52.324;8.032;2023-01-24T09:42:38;102882.06;;;2.26;100.00
60345;BME280;46188;52.324;8.032;2023-01-24T09:45:11;102879.72;;;2.29;100.00
60345;BME280;46188;52.324;8.032;2023-01-24T09:47:46;102879.72;;;2.29;100.00
60345;BME280;46188;52.324;8.032;2023-01-24T09:50:41;102889.31;;;2.30;100.00
60345;BME280;46188;52.324;8.032;2023-01-24T09:53:18;102884.13;;;2.30;100.00
60345;BME280;46188;52.324;8.032;2023-01-24T09:55:46;102877.38;;;2.32;100.00
60345;BME280;46188;52.324;8.032;2023-01-24T09:58:23;102882.78;;;2.35;100.00
60345;BME280;46188;52.324;8.032;2023-01-24T10:01:01;102879.69;;;2.39;100.00
60345;BME280;46188;52.324;8.032;2023-01-24T10:03:27;102877.09;;;2.39;100.00
60345;BME280;46188;52.324;8.032;2023-01-24T10:05:59;102883.44;;;2.43;100.00
60345;BME280;46188;52.324;8.032;2023-01-24T10:08:47;102874.88;;;2.44;100.00
60345;BME280;46188;52.324;8.032;2023-01-24T10:11:32;102880.44;;;2.38;100.00
60345;BME280;46188;52.324;8.032;2023-01-24T10:27:59;102872.03;;;2.30;100.00
60345;BME280;46188;52.324;8.032;2023-01-24T10:30:45;102870.31;;;2.31;100.00
60345;BME280;46188;52.324;8.032;2023-01-24T10:33:16;102876.44;;;2.31;100.00
60345;BME280;46188;52.324;8.032;2023-01-24T10:35:55;102870.59;;;2.34;100.00
60345;BME280;46188;52.324;8.032;2023-01-24T10:38:22;102867.84;;;2.32;100.00
60345;BME280;46188;52.324;8.032;2023-01-24T10:41:13;102863.41;;;2.31;100.00
60345;BME280;46188;52.324;8.032;2023-01-24T10:43:37;102865.13;;;2.31;100.00
60345;BME280;46188;52.324;8.032;2023-01-24T10:49:17;102869.00;;;2.36;100.00
60345;BME280;46188;52.324;8.032;2023-01-24T10:52:09;102862.22;;;2.38;100.00
60345;BME280;46188;52.324;8.032;2023-01-24T10:59:46;102863.03;;;2.37;100.00
60345;BME280;46188;52.324;8.032;2023-01-24T11:02:21;102853.66;;;2.39;100.00
60345;BME280;46188;52.324;8.032;2023-01-24T11:04:52;102852.06;;;2.41;100.00
60345;BME280;46188;52.324;8.032;2023-01-24T11:07:27;102851.94;;;2.39;100.00
60345;BME280;46188;52.324;8.032;2023-01-24T11:09:53;102850.28;;;2.40;100.00
60345;BME280;46188;52.324;8.032;2023-01-24T11:12:19;102845.97;;;2.40;100.00
60345;BME280;46188;52.324;8.032;2023-01-24T11:14:48;102852.06;;;2.41;100.00
60345;BME280;46188;52.324;8.032;2023-01-24T11:17:34;102857.28;;;2.41;100.00
60345;BME280;46188;52.324;8.032;2023-01-24T11:20:34;102843.25;;;2.39;100.00
60345;BME280;46188;52.324;8.032;2023-01-24T11:25:27;102827.19;;;2.45;100.00
60345;BME280;46188;52.324;8.032;2023-01-24T11:27:53;102831.25;;;2.41;100.00
60345;BME280;46188;52.324;8.032;2023-01-24T11:30:21;102825.41;;;2.44;100.00
60345;BME280;46188;52.324;8.032;2023-01-24T11:33:09;102825.66;;;2.47;100.00
60345;BME280;46188;52.324;8.032;2023-01-24T11:35:46;102817.72;;;2.45;100.00
60345;BME280;46188;52.324;8.032;2023-01-24T11:38:40;102821.34;;;2.47;100.00
60345;BME280;46188;52.324;8.032;2023-01-24T11:46:51;102821.22;;;2.46;100.00
60345;BME280;46188;52.324;8.032;2023-01-24T12:01:05;102803.63;;;2.53;100.00
60345;BME280;46188;52.324;8.032;2023-01-24T12:06:25;102809.22;;;2.48;100.00
60345;BME280;46188;52.324;8.032;2023-01-24T12:11:25;102797.91;;;2.47;100.00
60345;BME280;46188;52.324;8.032;2023-01-24T12:22:25;102792.41;;;2.54;100.00
60345;BME280;46188;52.324;8.032;2023-01-24T12:25:22;102785.63;;;2.56;100.00
60345;BME280;46188;52.324;8.032;2023-01-24T12:27:53;102791.09;;;2.59;100.00
60345;BME280;46188;52.324;8.032;2023-01-24T12:30:44;102793.69;;;2.59;100.00
60345;BME280;46188;52.324;8.032;2023-01-24T12:33:30;102780.53;;;2.58;100.00
60345;BME280;46188;52.324;8.032;2023-01-24T12:36:01;102781.34;;;2.57;100.00
60345;BME280;46188;52.324;8.032;2023-01-24T12:38:40;102782.94;;;2.55;100.00
60345;BME280;46188;52.324;8.032;2023-01-24T12:41:15;102781.34;;;2.57;100.00
60345;BME280;46188;52.324;8.032;2023-01-24T12:49:06;102772.25;;;2.52;100.00
60345;BME280;46188;52.324;8.032;2023-01-24T12:51:42;102767.06;;;2.52;100.00
60345;BME280;46188;52.324;8.032;2023-01-24T12:54:17;102764.78;;;2.56;100.00
60345;BME280;46188;52.324;8.032;2023-01-24T12:59:11;102763.25;;;2.58;100.00
60345;BME280;46188;52.324;8.032;2023-01-24T13:09:41;102751.56;;;2.53;100.00
60345;BME280;46188;52.324;8.032;2023-01-24T13:12:16;102757.28;;;2.49;100.00
60345;BME280;46188;52.324;8.032;2023-01-24T13:14:57;102756.63;;;2.52;100.00
60345;BME280;46188;52.324;8.032;2023-01-24T13:25:20;102755.19;;;2.55;100.00
60345;BME280;46188;52.324;8.032;2023-01-24T13:28:06;102751.25;;;2.61;100.00
60345;BME280;46188;52.324;8.032;2023-01-24T13:33:13;102756.97;;;2.56;100.00
60345;BME280;46188;52.324;8.032;2023-01-24T13:35:48;102753.22;;;2.53;100.00
60345;BME280;46188;52.324;8.032;2023-01-24T13:38:27;102759.50;;;2.55;100.00
60345;BME280;46188;52.324;8.032;2023-01-24T13:41:00;102750.88;;;2.56;100.00
60345;BME280;46188;52.324;8.032;2023-01-24T13:46:01;102751.25;;;2.61;100.00
60345;BME280;46188;52.324;8.032;2023-01-24T13:54:05;102765.97;;;2.60;100.00
60345;BME280;46188;52.324;8.032;2023-01-24T13:59:42;102765.59;;;2.55;100.00
60345;BME280;46188;52.324;8.032;2023-01-24T14:18:42;102760.44;;;2.45;100.00
60345;BME280;46188;52.324;8.032;2023-01-24T14:21:19;102752.09;;;2.49;100.00
60345;BME280;46188;52.324;8.032;2023-01-24T14:23:47;102761.03;;;2.53;100.00
60345;BME280;46188;52.324;8.032;2023-01-24T14:26:18;102750.75;;;2.54;100.00
60345;BME280;46188;52.324;8.032;2023-01-24T14:28:49;102759.88;;;2.49;100.00
60345;BME280;46188;52.324;8.032;2023-01-24T14:31:24;102759.13;;;2.50;100.00
60345;BME280;46188;52.324;8.032;2023-01-24T14:36:38;102761.97;;;2.53;100.00
60345;BME280;46188;52.324;8.032;2023-01-24T14:39:24;102757.78;;;2.55;100.00
60345;BME280;46188;52.324;8.032;2023-01-24T14:41:57;102766.38;;;2.54;100.00
60345;BME280;46188;52.324;8.032;2023-01-24T14:44:24;102769.78;;;2.53;100.00
60345;BME280;46188;52.324;8.032;2023-01-24T14:47:22;102772.38;;;2.53;100.00
60345;BME280;46188;52.324;8.032;2023-01-24T14:49:50;102776.78;;;2.54;100.00
60345;BME280;46188;52.324;8.032;2023-01-24T14:52:28;102767.69;;;2.49;100.00
60345;BME280;46188;52.324;8.032;2023-01-24T14:55:14;102770.06;;;2.46;100.00
60345;BME280;46188;52.324;8.032;2023-01-24T14:57:46;102763.19;;;2.36;100.00
60345;BME280;46188;52.324;8.032;2023-01-24T15:03:00;102754.78;;;2.29;100.00
60345;BME280;46188;52.324;8.032;2023-01-24T15:05:31;102765.06;;;2.27;100.00
60345;BME280;46188;52.324;8.032;2023-01-24T15:07:58;102761.00;;;2.31;100.00
60345;BME280;46188;52.324;8.032;2023-01-24T15:10:35;102760.34;;;2.33;100.00